This is the latest recevied weather packets stored in our database for station/object K0QED. If no packets are shown the sender has not sent any weather packets the latest 10 day(s).
| Time | Temp. | Humidity | Pressure | Rain* | Wind** | Luminosity | Snow |
|---|---|---|---|---|---|---|---|
| 1788156561 | 54° F | 95% | 771 mmHg | 0 in | - | 0 W/m² | - |
| 1788156256 | 54° F | 96% | 771.1 mmHg | 0 in | - | 0 W/m² | - |
| 1788155955 | 54° F | 96% | 771 mmHg | 0 in | - | 0 W/m² | - |
| 1788155650 | 54° F | 96% | 771.1 mmHg | 0 in | - | 0 W/m² | - |
| 1788155346 | 54° F | 95% | 771 mmHg | 0 in | - | 0 W/m² | - |
| 1788155041 | 54° F | 95% | 771.1 mmHg | 0 in | - | 0 W/m² | - |
| 1788154740 | 54° F | 94% | 771.4 mmHg | 0 in | - | 0 W/m² | - |
| 1788154438 | 55° F | 93% | 771.4 mmHg | 0 in | - | 0 W/m² | - |
| 1788154133 | 55° F | 91% | 771.6 mmHg | 0.07 in | - | 0 W/m² | - |
| 1788153832 | 55° F | 90% | 771.8 mmHg | 0.07 in | - | 0 W/m² | - |
| 1788153531 | 55° F | 90% | 771.6 mmHg | 0 in | - | 0 W/m² | - |
| 1788153229 | 55° F | 90% | 771.4 mmHg | 0 in | - | 0 W/m² | - |
| 1788152924 | 55° F | 90% | 771.4 mmHg | 0 in | - | 0 W/m² | - |
| 1788152623 | 54° F | 92% | 771.4 mmHg | 0 in | - | 0 W/m² | - |
| 1788152318 | 54° F | 93% | 771.1 mmHg | 0.05 in | - | 0 W/m² | - |
| 1788152012 | 54° F | 93% | 771.2 mmHg | 0.05 in | - | 0 W/m² | - |
| 1788151707 | 55° F | 92% | 771.2 mmHg | 0 in | - | 0 W/m² | - |
| 1788151402 | 55° F | 91% | 771.2 mmHg | 0 in | - | 0 W/m² | - |
| 1788151098 | 55° F | 90% | 771.5 mmHg | 0.07 in | - | 0 W/m² | - |
| 1788150798 | 56° F | 88% | 771.5 mmHg | 0.26 in | - | 0 W/m² | - |
| 1788150493 | 60° F | 81% | 771.4 mmHg | 0.26 in | - | 0 W/m² | - |
| 1788150192 | 64° F | 59% | 771.5 mmHg | 0 in | - | 0 W/m² | - |
| 1788149888 | 64° F | 54% | 771.2 mmHg | 0 in | - | 0 W/m² | - |
| 1788149587 | 64° F | 54% | 771.4 mmHg | 0 in | - | 0 W/m² | - |
| 1788149282 | 64° F | 54% | 771.1 mmHg | 0 in | - | 0 W/m² | - |
* Rain latest hour (hover to see other rain measurements)
** Current wind speed in m/s (hover to see current wind gust speed)